Airfield :
LOGIN :

Register | Disclaimer

   EN    FR    IT 

 










Legend :    VFR   Marginal VFR   IFR   Intensive IFR   Very Intensive IFR
Visi :
Ceiling :
>= 8 km
>= 3000ft
5 to 8 km
1000 to 3000 ft
1500m to 5 km
500 to 1000 ft
800 to 1500m
200 to 500 ft
< 800m
< 200 ft
Symbols :   Thunderstorms  Fog  Heavy snow  Heavy precipitations  Wind > 20 kt
SIGMETs :     Misc.  Thunderstorms  Icing  Turbulence  Mountain Waves  Volcanic Ashes






- Airport Elevation : 277 ft
- IATA code : JER


EGJJ - Jersey

CURRENT METAR :
  • 251620Z 02007KT 9999 FEW006 BKN007 11/10 Q1014

EXPIRED METARs :
  • 251550Z 02007KT 9999 -RA FEW004 BKN006 11/11 Q1014 RERA
  • 251520Z 36007KT 320V030 9999 -RA FEW005 BKN006 11/11 Q1013
  • 251450Z 36006KT 9999 -RA FEW004 SCT006 11/11 Q1013
  • 251420Z 35006KT 320V020 9999 SHRA SCT003 BKN005 11/11 Q1013 RESHRA

TAF TAF EGJJ
Valid from the 25 at 15:00 until the 26 at 00:00 UTC


251358Z 2515/2600 36010KT 9999 FEW005 BKN012
TEMPO 2515/2600 8000 -RA BKN008
PROB40
TEMPO 2515/2600 5000 RADZ BR BKN004
BECMG 2520/2522 06007KT
ATIS : +44 1534 498 073



MET'MAP, your aeronautical weather chart ! - Copyright ORBIFLY December 2007 - Disclaimer

ORBIFLY MET'MAP TEAM :

Programming & Development : Alexandra Zaïnal
Concept & original design : Baudouin d'Aumeries
Assistance for programming : Marc-Olivier Méhu
Technical & hardware support : Manuel Goepfert

Contact : metmap@orbifly.com




SOURCES & CREDITS :

   NOAA